Turkmenabat Airport
UTAV : now visible

Airfield :











YOU CAN JOIN US ON...

 
LOGIN :

Register | Disclaimer

   EN    FR    IT 

 









Legend :    VFR   Marginal VFR   IFR   Intensive IFR   Very Intensive IFR
Visi :
Ceiling :
>= 8 km
>= 3000ft
5 to 8 km
1000 to 3000 ft
1500m to 5 km
500 to 1000 ft
800 to 1500m
200 to 500 ft
< 800m
< 200 ft
Symbols :   Thunderstorms  Fog  Heavy snow  Heavy precipitations  Wind > 20 kt






- Airport Elevation : 630 ft
- IATA code : CRZ


UTAV - Turkmenabat

CURRENT METAR :
  • 291800Z 09006KT CAVOK 03/M01 Q1022 R31/CLRD70 NOSIG

EXPIRED METARs :
  • 291700Z 06002KT CAVOK 02/M01 Q1022 R31/CLRD70 NOSIG
  • 291600Z 07008KT CAVOK 04/M01 Q1022 R31/CLRD70 NOSIG

TAF TAF UTAV
Valid from the 29 at 18:00 until the 30 at 18:00 UTC


291630Z 2918/3018 12014KT 2000 BR BKN010
TEMPO 2918/3005 06014KT 0300 FZFG VV001
BECMG 3005/3007 CAVOK



MET'MAP, your aeronautical weather chart ! - Copyright ORBIFLY December 2007 - Disclaimer

ORBIFLY MET'MAP TEAM :

Programming & Development : Alexandra Zaïnal
Concept & original design : Baudouin d'Aumeries
Assistance for programming : Marc-Olivier Méhu
Technical & hardware support : Manuel Goepfert

Contact : metmap@orbifly.com




SOURCES & CREDITS :

   NOAA       Earth
Advisory